sensor_id;sensor_type;location;lat;lon;timestamp;P1;durP1;ratioP1;P2;durP2;ratioP2
50517;SDS011;37075;44.084;2.962;2023-07-13T00:01:32;8.93;;;3.10;;
50517;SDS011;37075;44.084;2.962;2023-07-13T00:04:18;6.18;;;3.78;;
50517;SDS011;37075;44.084;2.962;2023-07-13T00:07:06;6.30;;;3.28;;
50517;SDS011;37075;44.084;2.962;2023-07-13T00:09:52;8.25;;;3.25;;
50517;SDS011;37075;44.084;2.962;2023-07-13T00:12:39;4.38;;;3.13;;
50517;SDS011;37075;44.084;2.962;2023-07-13T00:15:26;11.87;;;3.40;;
50517;SDS011;37075;44.084;2.962;2023-07-13T00:18:15;16.45;;;3.53;;
50517;SDS011;37075;44.084;2.962;2023-07-13T00:23:50;8.63;;;3.67;;
50517;SDS011;37075;44.084;2.962;2023-07-13T00:26:36;6.07;;;3.00;;
50517;SDS011;37075;44.084;2.962;2023-07-13T00:29:22;6.68;;;3.65;;
50517;SDS011;37075;44.084;2.962;2023-07-13T00:32:09;6.10;;;2.53;;
50517;SDS011;37075;44.084;2.962;2023-07-13T00:34:58;8.32;;;2.72;;
50517;SDS011;37075;44.084;2.962;2023-07-13T00:37:44;8.88;;;4.03;;
50517;SDS011;37075;44.084;2.962;2023-07-13T00:40:30;7.13;;;3.90;;
50517;SDS011;37075;44.084;2.962;2023-07-13T00:43:17;9.93;;;3.90;;
50517;SDS011;37075;44.084;2.962;2023-07-13T00:46:14;7.22;;;3.63;;
50517;SDS011;37075;44.084;2.962;2023-07-13T00:49:03;10.52;;;4.53;;
50517;SDS011;37075;44.084;2.962;2023-07-13T00:51:54;6.80;;;4.28;;
50517;SDS011;37075;44.084;2.962;2023-07-13T00:54:43;6.60;;;3.13;;
50517;SDS011;37075;44.084;2.962;2023-07-13T00:57:32;7.05;;;3.80;;
50517;SDS011;37075;44.084;2.962;2023-07-13T01:00:19;6.73;;;3.30;;
50517;SDS011;37075;44.084;2.962;2023-07-13T01:03:07;16.98;;;3.45;;
50517;SDS011;37075;44.084;2.962;2023-07-13T01:05:54;5.20;;;4.38;;
50517;SDS011;37075;44.084;2.962;2023-07-13T01:08:42;11.63;;;3.90;;
50517;SDS011;37075;44.084;2.962;2023-07-13T01:11:28;7.72;;;3.85;;
50517;SDS011;37075;44.084;2.962;2023-07-13T01:14:15;6.53;;;3.95;;
50517;SDS011;37075;44.084;2.962;2023-07-13T01:17:01;9.88;;;4.05;;
50517;SDS011;37075;44.084;2.962;2023-07-13T01:19:49;5.25;;;3.38;;
50517;SDS011;37075;44.084;2.962;2023-07-13T01:22:36;8.80;;;3.85;;
50517;SDS011;37075;44.084;2.962;2023-07-13T01:28:09;10.73;;;4.50;;
50517;SDS011;37075;44.084;2.962;2023-07-13T01:30:57;7.38;;;4.55;;
50517;SDS011;37075;44.084;2.962;2023-07-13T01:33:44;7.63;;;4.75;;
50517;SDS011;37075;44.084;2.962;2023-07-13T01:36:30;8.10;;;4.47;;
50517;SDS011;37075;44.084;2.962;2023-07-13T01:39:18;9.07;;;4.83;;
50517;SDS011;37075;44.084;2.962;2023-07-13T01:42:06;7.60;;;5.32;;
50517;SDS011;37075;44.084;2.962;2023-07-13T01:44:52;9.00;;;4.63;;
50517;SDS011;37075;44.084;2.962;2023-07-13T01:47:38;10.45;;;4.80;;
50517;SDS011;37075;44.084;2.962;2023-07-13T01:50:25;6.70;;;4.07;;
50517;SDS011;37075;44.084;2.962;2023-07-13T01:53:11;7.72;;;3.97;;
50517;SDS011;37075;44.084;2.962;2023-07-13T01:55:59;10.75;;;4.78;;
50517;SDS011;37075;44.084;2.962;2023-07-13T01:58:45;4.50;;;3.17;;
50517;SDS011;37075;44.084;2.962;2023-07-13T02:01:31;5.75;;;4.20;;
50517;SDS011;37075;44.084;2.962;2023-07-13T02:04:17;6.90;;;4.10;;
50517;SDS011;37075;44.084;2.962;2023-07-13T02:07:03;6.88;;;4.03;;
50517;SDS011;37075;44.084;2.962;2023-07-13T02:09:50;33.72;;;6.38;;
50517;SDS011;37075;44.084;2.962;2023-07-13T02:12:38;8.25;;;4.20;;
50517;SDS011;37075;44.084;2.962;2023-07-13T02:15:24;5.90;;;4.60;;
50517;SDS011;37075;44.084;2.962;2023-07-13T02:18:10;10.98;;;4.50;;
50517;SDS011;37075;44.084;2.962;2023-07-13T02:21:01;11.95;;;5.57;;
50517;SDS011;37075;44.084;2.962;2023-07-13T02:23:48;10.82;;;6.28;;
50517;SDS011;37075;44.084;2.962;2023-07-13T02:26:34;8.68;;;5.30;;
50517;SDS011;37075;44.084;2.962;2023-07-13T02:29:22;7.00;;;5.45;;
50517;SDS011;37075;44.084;2.962;2023-07-13T02:32:08;9.07;;;5.03;;
50517;SDS011;37075;44.084;2.962;2023-07-13T02:34:54;11.55;;;4.63;;
50517;SDS011;37075;44.084;2.962;2023-07-13T02:37:40;12.18;;;4.80;;
50517;SDS011;37075;44.084;2.962;2023-07-13T02:40:26;12.90;;;5.72;;
50517;SDS011;37075;44.084;2.962;2023-07-13T02:43:12;7.63;;;5.22;;
50517;SDS011;37075;44.084;2.962;2023-07-13T02:46:00;10.13;;;4.50;;
50517;SDS011;37075;44.084;2.962;2023-07-13T02:48:53;6.88;;;4.93;;
50517;SDS011;37075;44.084;2.962;2023-07-13T02:51:39;10.75;;;6.35;;
50517;SDS011;37075;44.084;2.962;2023-07-13T02:54:24;12.25;;;7.10;;
50517;SDS011;37075;44.084;2.962;2023-07-13T02:57:11;12.23;;;7.50;;
50517;SDS011;37075;44.084;2.962;2023-07-13T02:59:57;12.90;;;6.50;;
50517;SDS011;37075;44.084;2.962;2023-07-13T03:02:45;9.18;;;6.05;;
50517;SDS011;37075;44.084;2.962;2023-07-13T03:05:31;8.55;;;5.72;;
50517;SDS011;37075;44.084;2.962;2023-07-13T03:08:17;9.30;;;5.60;;
50517;SDS011;37075;44.084;2.962;2023-07-13T03:13:55;7.97;;;5.43;;
50517;SDS011;37075;44.084;2.962;2023-07-13T03:16:42;8.07;;;5.93;;
50517;SDS011;37075;44.084;2.962;2023-07-13T03:19:29;10.43;;;5.78;;
50517;SDS011;37075;44.084;2.962;2023-07-13T03:22:16;15.55;;;5.93;;
50517;SDS011;37075;44.084;2.962;2023-07-13T03:25:03;13.15;;;6.22;;
50517;SDS011;37075;44.084;2.962;2023-07-13T03:27:50;10.80;;;7.28;;
50517;SDS011;37075;44.084;2.962;2023-07-13T03:30:36;7.32;;;5.53;;
50517;SDS011;37075;44.084;2.962;2023-07-13T03:33:22;18.65;;;6.45;;
50517;SDS011;37075;44.084;2.962;2023-07-13T03:36:12;8.57;;;6.35;;
50517;SDS011;37075;44.084;2.962;2023-07-13T03:39:01;11.68;;;5.97;;
50517;SDS011;37075;44.084;2.962;2023-07-13T03:41:57;9.77;;;6.40;;
50517;SDS011;37075;44.084;2.962;2023-07-13T03:44:43;8.48;;;5.88;;
50517;SDS011;37075;44.084;2.962;2023-07-13T03:47:36;11.73;;;5.82;;
50517;SDS011;37075;44.084;2.962;2023-07-13T03:50:23;10.10;;;6.75;;
50517;SDS011;37075;44.084;2.962;2023-07-13T03:53:10;11.95;;;6.72;;
50517;SDS011;37075;44.084;2.962;2023-07-13T03:55:56;11.52;;;7.00;;
50517;SDS011;37075;44.084;2.962;2023-07-13T04:01:38;11.77;;;6.95;;
50517;SDS011;37075;44.084;2.962;2023-07-13T04:04:25;9.77;;;6.70;;
50517;SDS011;37075;44.084;2.962;2023-07-13T04:07:11;9.98;;;7.35;;
50517;SDS011;37075;44.084;2.962;2023-07-13T04:10:00;13.50;;;6.10;;
50517;SDS011;37075;44.084;2.962;2023-07-13T04:12:48;9.73;;;5.55;;
50517;SDS011;37075;44.084;2.962;2023-07-13T04:15:34;12.88;;;6.47;;
50517;SDS011;37075;44.084;2.962;2023-07-13T04:18:21;12.63;;;7.60;;
50517;SDS011;37075;44.084;2.962;2023-07-13T04:21:07;9.90;;;6.40;;
50517;SDS011;37075;44.084;2.962;2023-07-13T04:23:54;9.25;;;6.88;;
50517;SDS011;37075;44.084;2.962;2023-07-13T04:26:41;12.20;;;7.38;;
50517;SDS011;37075;44.084;2.962;2023-07-13T04:29:28;10.15;;;6.35;;
50517;SDS011;37075;44.084;2.962;2023-07-13T04:32:14;10.32;;;7.20;;
50517;SDS011;37075;44.084;2.962;2023-07-13T04:35:00;12.52;;;6.70;;
50517;SDS011;37075;44.084;2.962;2023-07-13T04:37:46;8.80;;;6.40;;
50517;SDS011;37075;44.084;2.962;2023-07-13T04:43:21;11.32;;;6.25;;
50517;SDS011;37075;44.084;2.962;2023-07-13T04:46:08;15.80;;;7.60;;
50517;SDS011;37075;44.084;2.962;2023-07-13T04:48:56;11.10;;;7.30;;
50517;SDS011;37075;44.084;2.962;2023-07-13T04:51:43;11.07;;;7.88;;
50517;SDS011;37075;44.084;2.962;2023-07-13T04:54:29;11.85;;;7.63;;
50517;SDS011;37075;44.084;2.962;2023-07-13T04:57:15;9.18;;;6.13;;
50517;SDS011;37075;44.084;2.962;2023-07-13T05:00:03;12.57;;;6.43;;
50517;SDS011;37075;44.084;2.962;2023-07-13T05:02:51;10.73;;;7.15;;
50517;SDS011;37075;44.084;2.962;2023-07-13T05:05:37;14.15;;;6.15;;
50517;SDS011;37075;44.084;2.962;2023-07-13T05:08:23;12.95;;;5.25;;
50517;SDS011;37075;44.084;2.962;2023-07-13T05:11:09;8.68;;;6.28;;
50517;SDS011;37075;44.084;2.962;2023-07-13T05:13:55;10.93;;;7.00;;
50517;SDS011;37075;44.084;2.962;2023-07-13T05:16:42;14.57;;;7.10;;
50517;SDS011;37075;44.084;2.962;2023-07-13T05:19:29;12.35;;;6.35;;
50517;SDS011;37075;44.084;2.962;2023-07-13T05:22:15;8.20;;;6.47;;
50517;SDS011;37075;44.084;2.962;2023-07-13T05:25:02;7.82;;;5.70;;
50517;SDS011;37075;44.084;2.962;2023-07-13T05:27:50;10.45;;;6.68;;
50517;SDS011;37075;44.084;2.962;2023-07-13T05:30:36;15.25;;;6.55;;
50517;SDS011;37075;44.084;2.962;2023-07-13T05:33:24;12.70;;;6.53;;
50517;SDS011;37075;44.084;2.962;2023-07-13T05:36:11;11.80;;;5.82;;
50517;SDS011;37075;44.084;2.962;2023-07-13T05:38:57;9.40;;;6.10;;
50517;SDS011;37075;44.084;2.962;2023-07-13T05:41:43;9.25;;;5.75;;
50517;SDS011;37075;44.084;2.962;2023-07-13T05:44:29;6.78;;;4.72;;
50517;SDS011;37075;44.084;2.962;2023-07-13T05:47:15;9.05;;;5.75;;
50517;SDS011;37075;44.084;2.962;2023-07-13T05:50:02;8.23;;;4.65;;
50517;SDS011;37075;44.084;2.962;2023-07-13T05:52:49;6.47;;;5.40;;
50517;SDS011;37075;44.084;2.962;2023-07-13T05:55:35;6.85;;;4.38;;
50517;SDS011;37075;44.084;2.962;2023-07-13T05:58:21;7.47;;;4.13;;
50517;SDS011;37075;44.084;2.962;2023-07-13T06:01:09;12.00;;;4.38;;
50517;SDS011;37075;44.084;2.962;2023-07-13T06:03:57;6.55;;;4.47;;
50517;SDS011;37075;44.084;2.962;2023-07-13T06:06:44;6.35;;;2.72;;
50517;SDS011;37075;44.084;2.962;2023-07-13T06:09:30;3.35;;;2.95;;
50517;SDS011;37075;44.084;2.962;2023-07-13T06:12:17;10.48;;;3.47;;
50517;SDS011;37075;44.084;2.962;2023-07-13T06:15:03;9.25;;;4.43;;
50517;SDS011;37075;44.084;2.962;2023-07-13T06:17:49;11.05;;;4.43;;
50517;SDS011;37075;44.084;2.962;2023-07-13T06:20:36;4.15;;;3.08;;
50517;SDS011;37075;44.084;2.962;2023-07-13T06:23:23;4.85;;;3.15;;
50517;SDS011;37075;44.084;2.962;2023-07-13T06:26:10;7.13;;;3.83;;
50517;SDS011;37075;44.084;2.962;2023-07-13T06:28:57;3.80;;;2.63;;
50517;SDS011;37075;44.084;2.962;2023-07-13T06:31:43;4.72;;;2.60;;
50517;SDS011;37075;44.084;2.962;2023-07-13T06:34:29;4.10;;;2.42;;
50517;SDS011;37075;44.084;2.962;2023-07-13T06:37:15;8.00;;;2.53;;
50517;SDS011;37075;44.084;2.962;2023-07-13T06:40:03;3.55;;;2.45;;
50517;SDS011;37075;44.084;2.962;2023-07-13T06:42:51;6.18;;;1.92;;
50517;SDS011;37075;44.084;2.962;2023-07-13T06:45:40;3.53;;;1.95;;
50517;SDS011;37075;44.084;2.962;2023-07-13T06:48:27;8.27;;;1.92;;
50517;SDS011;37075;44.084;2.962;2023-07-13T06:51:14;3.20;;;1.67;;
50517;SDS011;37075;44.084;2.962;2023-07-13T06:54:00;4.63;;;1.60;;
50517;SDS011;37075;44.084;2.962;2023-07-13T06:56:47;8.52;;;1.70;;
50517;SDS011;37075;44.084;2.962;2023-07-13T06:59:33;5.00;;;1.50;;
50517;SDS011;37075;44.084;2.962;2023-07-13T07:02:19;2.75;;;1.63;;
50517;SDS011;37075;44.084;2.962;2023-07-13T07:05:05;7.40;;;2.22;;
50517;SDS011;37075;44.084;2.962;2023-07-13T07:07:54;10.10;;;1.80;;
50517;SDS011;37075;44.084;2.962;2023-07-13T07:10:41;3.30;;;1.50;;
50517;SDS011;37075;44.084;2.962;2023-07-13T07:13:29;2.80;;;1.27;;
50517;SDS011;37075;44.084;2.962;2023-07-13T07:16:15;6.25;;;1.70;;
50517;SDS011;37075;44.084;2.962;2023-07-13T07:19:02;2.08;;;1.27;;
50517;SDS011;37075;44.084;2.962;2023-07-13T07:21:48;2.28;;;1.17;;
50517;SDS011;37075;44.084;2.962;2023-07-13T07:24:33;7.15;;;1.38;;
50517;SDS011;37075;44.084;2.962;2023-07-13T07:27:20;3.92;;;1.13;;
50517;SDS011;37075;44.084;2.962;2023-07-13T07:30:08;5.55;;;1.10;;
50517;SDS011;37075;44.084;2.962;2023-07-13T07:32:56;4.18;;;0.88;;
50517;SDS011;37075;44.084;2.962;2023-07-13T07:35:42;4.60;;;1.08;;
50517;SDS011;37075;44.084;2.962;2023-07-13T07:38:29;3.43;;;1.30;;
50517;SDS011;37075;44.084;2.962;2023-07-13T07:41:15;5.85;;;1.17;;
50517;SDS011;37075;44.084;2.962;2023-07-13T07:44:02;5.53;;;0.98;;
50517;SDS011;37075;44.084;2.962;2023-07-13T07:46:49;6.57;;;1.20;;
50517;SDS011;37075;44.084;2.962;2023-07-13T07:49:36;4.93;;;1.05;;
50517;SDS011;37075;44.084;2.962;2023-07-13T07:52:22;2.80;;;0.80;;
50517;SDS011;37075;44.084;2.962;2023-07-13T07:55:08;2.03;;;0.65;;
50517;SDS011;37075;44.084;2.962;2023-07-13T07:57:55;2.35;;;0.70;;
50517;SDS011;37075;44.084;2.962;2023-07-13T08:00:42;2.05;;;0.60;;
50517;SDS011;37075;44.084;2.962;2023-07-13T08:03:29;2.03;;;0.60;;
50517;SDS011;37075;44.084;2.962;2023-07-13T08:06:15;2.63;;;0.50;;
50517;SDS011;37075;44.084;2.962;2023-07-13T08:09:04;5.13;;;1.65;;
50517;SDS011;37075;44.084;2.962;2023-07-13T08:11:50;4.35;;;0.77;;
50517;SDS011;37075;44.084;2.962;2023-07-13T08:14:36;5.45;;;0.93;;
50517;SDS011;37075;44.084;2.962;2023-07-13T08:17:23;1.95;;;1.02;;
50517;SDS011;37075;44.084;2.962;2023-07-13T08:20:11;1.38;;;0.52;;
50517;SDS011;37075;44.084;2.962;2023-07-13T08:22:57;1.73;;;0.68;;
50517;SDS011;37075;44.084;2.962;2023-07-13T08:25:50;2.95;;;0.52;;
50517;SDS011;37075;44.084;2.962;2023-07-13T08:28:37;2.10;;;0.40;;
50517;SDS011;37075;44.084;2.962;2023-07-13T08:31:23;1.65;;;0.60;;
50517;SDS011;37075;44.084;2.962;2023-07-13T08:34:09;1.40;;;0.50;;
50517;SDS011;37075;44.084;2.962;2023-07-13T08:36:57;1.20;;;0.47;;
50517;SDS011;37075;44.084;2.962;2023-07-13T08:39:43;0.73;;;0.40;;
50517;SDS011;37075;44.084;2.962;2023-07-13T08:42:31;2.63;;;0.80;;
50517;SDS011;37075;44.084;2.962;2023-07-13T08:45:22;2.38;;;0.47;;
50517;SDS011;37075;44.084;2.962;2023-07-13T08:48:17;1.48;;;0.50;;
50517;SDS011;37075;44.084;2.962;2023-07-13T08:51:09;1.73;;;0.82;;
50517;SDS011;37075;44.084;2.962;2023-07-13T08:54:22;4.78;;;0.70;;
50517;SDS011;37075;44.084;2.962;2023-07-13T08:57:15;3.92;;;0.60;;
50517;SDS011;37075;44.084;2.962;2023-07-13T09:00:05;2.40;;;0.63;;
50517;SDS011;37075;44.084;2.962;2023-07-13T09:02:56;1.20;;;0.40;;
50517;SDS011;37075;44.084;2.962;2023-07-13T09:05:44;2.40;;;0.70;;
50517;SDS011;37075;44.084;2.962;2023-07-13T09:08:44;2.30;;;0.45;;
50517;SDS011;37075;44.084;2.962;2023-07-13T09:11:41;2.35;;;0.55;;
50517;SDS011;37075;44.084;2.962;2023-07-13T09:14:38;2.50;;;0.68;;
50517;SDS011;37075;44.084;2.962;2023-07-13T09:17:30;2.42;;;0.70;;
50517;SDS011;37075;44.084;2.962;2023-07-13T09:20:21;5.53;;;0.55;;
50517;SDS011;37075;44.084;2.962;2023-07-13T09:23:13;4.90;;;0.85;;
50517;SDS011;37075;44.084;2.962;2023-07-13T09:26:02;1.20;;;0.80;;
50517;SDS011;37075;44.084;2.962;2023-07-13T09:28:54;0.88;;;0.50;;
50517;SDS011;37075;44.084;2.962;2023-07-13T09:31:44;4.00;;;0.80;;
50517;SDS011;37075;44.084;2.962;2023-07-13T09:34:35;2.85;;;1.08;;
50517;SDS011;37075;44.084;2.962;2023-07-13T09:37:22;4.47;;;0.73;;
50517;SDS011;37075;44.084;2.962;2023-07-13T09:40:15;2.92;;;0.70;;
50517;SDS011;37075;44.084;2.962;2023-07-13T09:43:08;2.35;;;0.73;;
50517;SDS011;37075;44.084;2.962;2023-07-13T09:46:00;2.17;;;0.90;;
50517;SDS011;37075;44.084;2.962;2023-07-13T09:48:46;5.85;;;1.20;;
50517;SDS011;37075;44.084;2.962;2023-07-13T09:54:20;5.47;;;1.02;;
50517;SDS011;37075;44.084;2.962;2023-07-13T09:57:12;1.63;;;0.80;;
50517;SDS011;37075;44.084;2.962;2023-07-13T10:00:00;7.47;;;0.88;;
50517;SDS011;37075;44.084;2.962;2023-07-13T10:03:02;1.40;;;0.50;;
50517;SDS011;37075;44.084;2.962;2023-07-13T10:05:51;4.38;;;0.85;;
50517;SDS011;37075;44.084;2.962;2023-07-13T10:08:38;4.82;;;0.93;;
50517;SDS011;37075;44.084;2.962;2023-07-13T10:11:26;5.18;;;1.05;;
50517;SDS011;37075;44.084;2.962;2023-07-13T10:14:15;3.63;;;0.50;;
50517;SDS011;37075;44.084;2.962;2023-07-13T10:17:02;2.60;;;0.60;;
50517;SDS011;37075;44.084;2.962;2023-07-13T10:19:51;3.78;;;0.80;;
50517;SDS011;37075;44.084;2.962;2023-07-13T10:25:30;3.13;;;0.95;;
50517;SDS011;37075;44.084;2.962;2023-07-13T10:28:22;3.97;;;1.38;;
50517;SDS011;37075;44.084;2.962;2023-07-13T10:31:13;1.30;;;0.50;;
50517;SDS011;37075;44.084;2.962;2023-07-13T10:34:01;2.20;;;0.80;;
50517;SDS011;37075;44.084;2.962;2023-07-13T10:36:49;2.75;;;0.32;;
50517;SDS011;37075;44.084;2.962;2023-07-13T10:39:37;2.88;;;0.47;;
50517;SDS011;37075;44.084;2.962;2023-07-13T10:42:25;2.75;;;0.45;;
50517;SDS011;37075;44.084;2.962;2023-07-13T10:45:14;2.35;;;0.70;;
50517;SDS011;37075;44.084;2.962;2023-07-13T10:48:02;5.15;;;0.57;;
50517;SDS011;37075;44.084;2.962;2023-07-13T10:50:50;2.55;;;0.60;;
50517;SDS011;37075;44.084;2.962;2023-07-13T10:53:39;3.97;;;0.73;;
50517;SDS011;37075;44.084;2.962;2023-07-13T10:59:15;2.33;;;0.65;;
50517;SDS011;37075;44.084;2.962;2023-07-13T11:02:10;2.47;;;0.70;;
50517;SDS011;37075;44.084;2.962;2023-07-13T11:05:12;3.15;;;0.70;;
50517;SDS011;37075;44.084;2.962;2023-07-13T11:08:16;3.05;;;0.80;;
50517;SDS011;37075;44.084;2.962;2023-07-13T11:14:27;1.55;;;0.50;;
50517;SDS011;37075;44.084;2.962;2023-07-13T11:17:36;3.05;;;0.70;;
50517;SDS011;37075;44.084;2.962;2023-07-13T11:20:30;3.25;;;0.63;;
50517;SDS011;37075;44.084;2.962;2023-07-13T11:23:31;3.60;;;1.23;;
50517;SDS011;37075;44.084;2.962;2023-07-13T11:29:26;0.82;;;0.57;;
50517;SDS011;37075;44.084;2.962;2023-07-13T11:32:23;2.80;;;0.50;;
50517;SDS011;37075;44.084;2.962;2023-07-13T11:35:12;2.03;;;0.68;;
50517;SDS011;37075;44.084;2.962;2023-07-13T11:38:03;3.33;;;1.10;;
50517;SDS011;37075;44.084;2.962;2023-07-13T11:41:00;2.47;;;0.60;;
50517;SDS011;37075;44.084;2.962;2023-07-13T11:43:50;3.78;;;1.15;;
50517;SDS011;37075;44.084;2.962;2023-07-13T11:46:44;3.83;;;0.55;;
50517;SDS011;37075;44.084;2.962;2023-07-13T11:49:31;1.75;;;0.30;;
50517;SDS011;37075;44.084;2.962;2023-07-13T11:52:31;5.65;;;0.60;;
50517;SDS011;37075;44.084;2.962;2023-07-13T11:55:20;1.23;;;0.50;;
50517;SDS011;37075;44.084;2.962;2023-07-13T11:58:08;5.30;;;0.98;;
50517;SDS011;37075;44.084;2.962;2023-07-13T12:00:59;0.95;;;0.47;;
50517;SDS011;37075;44.084;2.962;2023-07-13T12:03:49;1.38;;;0.73;;
50517;SDS011;37075;44.084;2.962;2023-07-13T12:06:37;1.92;;;0.50;;
50517;SDS011;37075;44.084;2.962;2023-07-13T12:09:26;1.20;;;0.40;;
50517;SDS011;37075;44.084;2.962;2023-07-13T12:12:14;2.35;;;0.70;;
50517;SDS011;37075;44.084;2.962;2023-07-13T12:15:05;1.08;;;0.40;;
50517;SDS011;37075;44.084;2.962;2023-07-13T12:17:52;2.88;;;0.60;;
50517;SDS011;37075;44.084;2.962;2023-07-13T12:20:42;1.58;;;0.68;;
50517;SDS011;37075;44.084;2.962;2023-07-13T12:23:29;2.83;;;1.10;;
50517;SDS011;37075;44.084;2.962;2023-07-13T12:26:17;1.08;;;0.30;;
50517;SDS011;37075;44.084;2.962;2023-07-13T12:29:05;3.55;;;0.60;;
50517;SDS011;37075;44.084;2.962;2023-07-13T12:31:52;2.67;;;0.60;;
50517;SDS011;37075;44.084;2.962;2023-07-13T12:34:51;3.55;;;0.77;;
50517;SDS011;37075;44.084;2.962;2023-07-13T12:37:38;3.40;;;0.52;;
50517;SDS011;37075;44.084;2.962;2023-07-13T12:40:29;2.50;;;0.40;;
50517;SDS011;37075;44.084;2.962;2023-07-13T12:43:20;1.98;;;0.85;;
50517;SDS011;37075;44.084;2.962;2023-07-13T12:46:15;1.27;;;0.50;;
50517;SDS011;37075;44.084;2.962;2023-07-13T12:49:04;3.08;;;0.70;;
50517;SDS011;37075;44.084;2.962;2023-07-13T12:51:57;1.08;;;0.50;;
50517;SDS011;37075;44.084;2.962;2023-07-13T12:54:52;2.70;;;0.65;;
50517;SDS011;37075;44.084;2.962;2023-07-13T12:57:41;1.63;;;0.38;;
50517;SDS011;37075;44.084;2.962;2023-07-13T13:00:35;2.38;;;0.80;;
50517;SDS011;37075;44.084;2.962;2023-07-13T13:03:24;1.92;;;0.52;;
50517;SDS011;37075;44.084;2.962;2023-07-13T13:06:21;0.70;;;0.50;;
50517;SDS011;37075;44.084;2.962;2023-07-13T13:09:11;1.75;;;0.60;;
50517;SDS011;37075;44.084;2.962;2023-07-13T13:11:58;2.88;;;0.80;;
50517;SDS011;37075;44.084;2.962;2023-07-13T13:14:45;1.55;;;0.63;;
50517;SDS011;37075;44.084;2.962;2023-07-13T13:17:33;1.67;;;0.60;;
50517;SDS011;37075;44.084;2.962;2023-07-13T13:20:21;0.68;;;0.30;;
50517;SDS011;37075;44.084;2.962;2023-07-13T13:23:11;3.45;;;0.60;;
50517;SDS011;37075;44.084;2.962;2023-07-13T13:25:59;1.10;;;0.30;;
50517;SDS011;37075;44.084;2.962;2023-07-13T13:28:46;1.88;;;0.43;;
50517;SDS011;37075;44.084;2.962;2023-07-13T13:31:33;1.73;;;0.30;;
50517;SDS011;37075;44.084;2.962;2023-07-13T13:34:19;1.23;;;0.47;;
50517;SDS011;37075;44.084;2.962;2023-07-13T13:40:16;1.63;;;0.60;;
50517;SDS011;37075;44.084;2.962;2023-07-13T13:43:07;1.13;;;0.63;;
50517;SDS011;37075;44.084;2.962;2023-07-13T13:46:00;1.90;;;0.38;;
50517;SDS011;37075;44.084;2.962;2023-07-13T13:48:47;5.32;;;0.95;;
50517;SDS011;37075;44.084;2.962;2023-07-13T13:51:34;2.22;;;0.60;;
50517;SDS011;37075;44.084;2.962;2023-07-13T13:54:20;0.65;;;0.40;;
50517;SDS011;37075;44.084;2.962;2023-07-13T13:57:08;1.75;;;0.50;;
50517;SDS011;37075;44.084;2.962;2023-07-13T13:59:58;2.80;;;1.00;;
50517;SDS011;37075;44.084;2.962;2023-07-13T14:02:44;1.25;;;0.55;;
50517;SDS011;37075;44.084;2.962;2023-07-13T14:05:34;1.63;;;0.50;;
50517;SDS011;37075;44.084;2.962;2023-07-13T14:08:21;2.15;;;0.47;;
50517;SDS011;37075;44.084;2.962;2023-07-13T14:13:57;3.40;;;0.40;;
50517;SDS011;37075;44.084;2.962;2023-07-13T14:16:46;3.75;;;0.68;;
50517;SDS011;37075;44.084;2.962;2023-07-13T14:19:37;1.95;;;0.50;;
50517;SDS011;37075;44.084;2.962;2023-07-13T14:22:23;1.48;;;0.40;;
50517;SDS011;37075;44.084;2.962;2023-07-13T14:25:10;1.00;;;0.55;;
50517;SDS011;37075;44.084;2.962;2023-07-13T14:27:58;4.13;;;0.60;;
50517;SDS011;37075;44.084;2.962;2023-07-13T14:30:48;6.40;;;0.60;;
50517;SDS011;37075;44.084;2.962;2023-07-13T14:33:37;5.72;;;1.55;;
50517;SDS011;37075;44.084;2.962;2023-07-13T14:36:27;3.35;;;0.50;;
50517;SDS011;37075;44.084;2.962;2023-07-13T14:39:16;2.25;;;0.70;;
50517;SDS011;37075;44.084;2.962;2023-07-13T14:42:04;6.50;;;0.63;;
50517;SDS011;37075;44.084;2.962;2023-07-13T14:44:51;1.80;;;0.65;;
50517;SDS011;37075;44.084;2.962;2023-07-13T14:47:37;2.17;;;0.40;;
50517;SDS011;37075;44.084;2.962;2023-07-13T14:50:27;3.60;;;0.45;;
50517;SDS011;37075;44.084;2.962;2023-07-13T14:53:17;2.10;;;0.40;;
50517;SDS011;37075;44.084;2.962;2023-07-13T14:56:08;2.17;;;0.77;;
50517;SDS011;37075;44.084;2.962;2023-07-13T14:58:56;2.72;;;0.50;;
50517;SDS011;37075;44.084;2.962;2023-07-13T15:01:42;1.83;;;0.63;;
50517;SDS011;37075;44.084;2.962;2023-07-13T15:04:29;4.22;;;0.50;;
50517;SDS011;37075;44.084;2.962;2023-07-13T15:07:16;1.45;;;0.50;;
50517;SDS011;37075;44.084;2.962;2023-07-13T15:10:11;3.53;;;0.50;;
50517;SDS011;37075;44.084;2.962;2023-07-13T15:13:00;2.30;;;0.47;;
50517;SDS011;37075;44.084;2.962;2023-07-13T15:15:57;2.60;;;0.43;;
50517;SDS011;37075;44.084;2.962;2023-07-13T15:18:44;1.05;;;0.40;;
50517;SDS011;37075;44.084;2.962;2023-07-13T15:21:31;0.60;;;0.38;;
50517;SDS011;37075;44.084;2.962;2023-07-13T15:24:20;3.33;;;0.52;;
50517;SDS011;37075;44.084;2.962;2023-07-13T15:27:09;2.05;;;0.63;;
50517;SDS011;37075;44.084;2.962;2023-07-13T15:29:57;2.50;;;0.52;;
50517;SDS011;37075;44.084;2.962;2023-07-13T15:32:43;1.40;;;0.40;;
50517;SDS011;37075;44.084;2.962;2023-07-13T15:35:31;1.77;;;0.43;;
50517;SDS011;37075;44.084;2.962;2023-07-13T15:38:19;4.85;;;0.70;;
50517;SDS011;37075;44.084;2.962;2023-07-13T15:41:11;5.63;;;0.55;;
50517;SDS011;37075;44.084;2.962;2023-07-13T15:44:05;3.50;;;1.25;;
50517;SDS011;37075;44.084;2.962;2023-07-13T15:47:08;3.75;;;0.50;;
50517;SDS011;37075;44.084;2.962;2023-07-13T15:49:56;2.13;;;0.80;;
50517;SDS011;37075;44.084;2.962;2023-07-13T15:52:44;3.17;;;0.65;;
50517;SDS011;37075;44.084;2.962;2023-07-13T15:55:36;1.65;;;0.60;;
50517;SDS011;37075;44.084;2.962;2023-07-13T15:58:25;1.88;;;1.55;;
50517;SDS011;37075;44.084;2.962;2023-07-13T16:01:12;7.07;;;0.80;;
50517;SDS011;37075;44.084;2.962;2023-07-13T16:06:45;6.63;;;0.50;;
50517;SDS011;37075;44.084;2.962;2023-07-13T16:09:32;3.58;;;0.50;;
50517;SDS011;37075;44.084;2.962;2023-07-13T16:12:18;4.20;;;0.88;;
50517;SDS011;37075;44.084;2.962;2023-07-13T16:15:10;0.82;;;0.32;;
50517;SDS011;37075;44.084;2.962;2023-07-13T16:17:59;4.72;;;0.50;;
50517;SDS011;37075;44.084;2.962;2023-07-13T16:20:45;0.70;;;0.40;;
50517;SDS011;37075;44.084;2.962;2023-07-13T16:23:33;5.32;;;0.77;;
50517;SDS011;37075;44.084;2.962;2023-07-13T16:26:25;1.40;;;0.50;;
50517;SDS011;37075;44.084;2.962;2023-07-13T16:29:24;1.75;;;0.40;;
50517;SDS011;37075;44.084;2.962;2023-07-13T16:32:13;2.13;;;0.60;;
50517;SDS011;37075;44.084;2.962;2023-07-13T16:35:00;2.15;;;0.40;;
50517;SDS011;37075;44.084;2.962;2023-07-13T16:37:46;2.10;;;0.85;;
50517;SDS011;37075;44.084;2.962;2023-07-13T16:40:33;5.53;;;0.50;;
50517;SDS011;37075;44.084;2.962;2023-07-13T16:43:20;3.70;;;0.52;;
50517;SDS011;37075;44.084;2.962;2023-07-13T16:46:07;2.37;;;0.67;;
50517;SDS011;37075;44.084;2.962;2023-07-13T16:49:00;4.68;;;0.70;;
50517;SDS011;37075;44.084;2.962;2023-07-13T16:51:46;5.28;;;0.50;;
50517;SDS011;37075;44.084;2.962;2023-07-13T16:54:33;3.90;;;0.98;;
50517;SDS011;37075;44.084;2.962;2023-07-13T16:57:30;1.75;;;0.40;;
50517;SDS011;37075;44.084;2.962;2023-07-13T17:00:19;4.22;;;0.80;;
50517;SDS011;37075;44.084;2.962;2023-07-13T17:03:12;1.65;;;0.70;;
50517;SDS011;37075;44.084;2.962;2023-07-13T17:05:59;6.43;;;0.57;;
50517;SDS011;37075;44.084;2.962;2023-07-13T17:08:49;4.35;;;0.65;;
50517;SDS011;37075;44.084;2.962;2023-07-13T17:11:37;2.92;;;0.55;;
50517;SDS011;37075;44.084;2.962;2023-07-13T17:17:13;3.85;;;0.60;;
50517;SDS011;37075;44.084;2.962;2023-07-13T17:20:02;1.67;;;0.60;;
50517;SDS011;37075;44.084;2.962;2023-07-13T17:22:51;3.85;;;1.08;;
50517;SDS011;37075;44.084;2.962;2023-07-13T17:25:38;3.35;;;1.00;;
50517;SDS011;37075;44.084;2.962;2023-07-13T17:28:25;1.17;;;0.50;;
50517;SDS011;37075;44.084;2.962;2023-07-13T17:31:16;3.28;;;0.60;;
50517;SDS011;37075;44.084;2.962;2023-07-13T17:34:08;0.55;;;0.32;;